Time;durP1;ratioP1;P1;durP2;ratioP2;P2;SDS_P1;SDS_P2;PMS_P1;PMS_P2;Temp;Humidity;BMP_temperature;BMP_pressure;BME280_temperature;BME280_humidity;BME280_pressure;Samples;Min_cycle;Max_cycle;Signal;HPM_P1;HPM_P2
2021/06/09 00:02:26;;;;;;;14.13;9.50;;;;;;;15.56;67.85;102457.59;5078199;28;20067;-73
2021/06/09 00:04:54;;;;;;;18.00;10.15;;;;;;;15.56;67.83;102447.72;5081341;28;20064;-72
2021/06/09 00:07:23;;;;;;;16.70;9.98;;;;;;;15.52;67.39;102448.72;5073747;28;20195;-72
2021/06/09 00:09:50;;;;;;;16.33;9.85;;;;;;;15.48;68.50;102458.69;5098103;27;20060;-72
2021/06/09 00:12:17;;;;;;;16.08;10.35;;;;;;;15.41;68.85;102456.19;5078769;28;20060;-72
2021/06/09 00:14:45;;;;;;;14.85;9.40;;;;;;;15.36;68.64;102455.44;5079804;28;20071;-72
2021/06/09 00:17:12;;;;;;;18.33;10.98;;;;;;;15.29;68.96;102458.31;5081922;28;20067;-75
2021/06/09 00:19:39;;;;;;;16.08;9.75;;;;;;;15.26;69.41;102460.19;5078798;28;20064;-75
2021/06/09 00:22:07;;;;;;;16.08;10.18;;;;;;;15.25;69.70;102456.59;5078440;28;20060;-75
2021/06/09 00:24:36;;;;;;;16.45;10.18;;;;;;;15.24;69.99;102451.28;5080079;28;20057;-76
2021/06/09 00:27:04;;;;;;;17.42;10.15;;;;;;;15.21;70.51;102454.91;5080566;28;20067;-75
2021/06/09 00:29:31;;;;;;;17.65;10.38;;;;;;;15.20;70.47;102453.16;5074895;28;20067;-74
2021/06/09 00:31:58;;;;;;;18.27;10.50;;;;;;;15.11;71.31;102461.47;5079720;28;20105;-73
2021/06/09 00:34:26;;;;;;;15.48;10.35;;;;;;;15.06;70.35;102464.25;5073894;28;20064;-75
2021/06/09 00:36:53;;;;;;;15.20;9.82;;;;;;;15.08;70.55;102461.53;5079501;28;20071;-74
2021/06/09 00:39:21;;;;;;;16.15;10.40;;;;;;;15.04;70.59;102460.72;5076174;28;20422;-75
2021/06/09 00:41:50;;;;;;;19.02;10.60;;;;;;;15.04;70.60;102465.22;5079403;28;20059;-75
2021/06/09 00:44:17;;;;;;;18.48;11.57;;;;;;;15.05;71.33;102456.22;5073972;28;20063;-75
2021/06/09 00:46:44;;;;;;;17.98;10.20;;;;;;;15.01;71.65;102457.25;5078545;28;20064;-76
2021/06/09 00:49:11;;;;;;;19.60;10.70;;;;;;;15.01;72.03;102463.50;5073880;28;20150;-75
2021/06/09 00:51:39;;;;;;;18.60;9.77;;;;;;;14.98;71.85;102455.50;5081019;28;20056;-75
2021/06/09 00:54:06;;;;;;;15.95;10.18;;;;;;;14.94;71.59;102460.06;5077887;28;20062;-75
2021/06/09 00:56:36;;;;;;;20.75;12.05;;;;;;;14.85;72.09;102460.31;5078077;28;20060;-74
2021/06/09 00:59:06;;;;;;;14.98;9.32;;;;;;;14.83;71.69;102455.88;5077161;28;20067;-74
2021/06/09 01:01:34;;;;;;;16.73;9.95;;;;;;;14.82;72.85;102448.75;5078203;28;20048;-74
2021/06/09 01:04:04;;;;;;;16.27;10.35;;;;;;;14.79;72.63;102452.38;5081352;28;20102;-74
2021/06/09 01:06:32;;;;;;;19.08;11.65;;;;;;;14.74;73.74;102447.13;5079270;28;20059;-74
2021/06/09 01:08:59;;;;;;;19.15;11.43;;;;;;;14.73;73.95;102447.16;5082669;28;20056;-74
2021/06/09 01:11:28;;;;;;;17.45;10.48;;;;;;;14.70;74.58;102449.94;5072329;28;20064;-75
2021/06/09 01:13:56;;;;;;;19.67;11.43;;;;;;;14.69;73.91;102451.75;5081515;28;20070;-74
2021/06/09 01:16:25;;;;;;;16.55;10.35;;;;;;;14.70;73.33;102452.63;5073880;28;20798;-74
2021/06/09 01:18:54;;;;;;;21.50;11.38;;;;;;;14.70;74.69;102445.44;5080152;28;20056;-74
2021/06/09 01:21:27;;;;;;;21.02;12.25;;;;;;;14.62;75.63;102446.53;5072942;28;20067;-74
2021/06/09 01:23:54;;;;;;;21.08;13.80;;;;;;;14.61;74.34;102447.44;5078163;28;20052;-74
2021/06/09 01:26:24;;;;;;;17.23;12.05;;;;;;;14.60;74.73;102451.06;5074382;28;20059;-74
2021/06/09 01:28:53;;;;;;;18.23;11.70;;;;;;;14.55;75.71;102443.94;5080392;28;20113;-71
2021/06/09 01:31:21;;;;;;;20.80;12.38;;;;;;;14.52;75.12;102448.50;5073402;28;20060;-72
2021/06/09 01:33:49;;;;;;;25.00;13.25;;;;;;;14.49;75.99;102448.56;5081443;28;20063;-72
2021/06/09 01:36:16;;;;;;;20.30;12.45;;;;;;;14.49;74.86;102452.16;5072063;28;20056;-72
2021/06/09 01:38:45;;;;;;;21.27;13.48;;;;;;;14.50;75.63;102447.66;5080425;28;20067;-75
2021/06/09 01:41:12;;;;;;;23.85;12.75;;;;;;;14.48;75.83;102446.81;5072119;28;20060;-75
2021/06/09 01:43:40;;;;;;;21.08;12.18;;;;;;;14.49;76.15;102452.16;5077288;28;20056;-74
2021/06/09 01:46:07;;;;;;;21.05;12.98;;;;;;;14.50;76.14;102445.84;5075821;28;20501;-74
2021/06/09 01:48:35;;;;;;;22.73;12.95;;;;;;;14.49;76.37;102452.16;5079354;28;20056;-75
2021/06/09 01:51:03;;;;;;;24.35;13.95;;;;;;;14.44;76.45;102453.16;5078080;28;20080;-73
2021/06/09 01:53:30;;;;;;;20.25;13.48;;;;;;;14.43;76.22;102446.91;5079805;28;20056;-75
2021/06/09 01:56:00;;;;;;;23.27;14.45;;;;;;;14.43;76.47;102444.22;5077811;28;20425;-70
2021/06/09 01:58:28;;;;;;;23.05;13.25;;;;;;;14.41;76.92;102445.22;5074544;28;20105;-74
2021/06/09 02:00:56;;;;;;;25.30;15.48;;;;;;;14.39;76.82;102447.91;5075866;28;20060;-74
2021/06/09 02:03:23;;;;;;;27.60;15.50;;;;;;;14.37;76.13;102445.28;5072321;28;20064;-76
2021/06/09 02:05:51;;;;;;;25.08;14.60;;;;;;;14.37;76.33;102439.03;5079137;28;20218;-74
2021/06/09 02:08:18;;;;;;;22.17;14.00;;;;;;;14.37;76.45;102439.03;5071900;28;20060;-71
2021/06/09 02:10:45;;;;;;;28.30;15.13;;;;;;;14.34;76.38;102437.28;5076815;28;20056;-71
2021/06/09 02:13:16;;;;;;;23.95;15.63;;;;;;;14.33;76.59;102440.00;5071708;28;20069;-71
2021/06/09 02:15:45;;;;;;;28.42;15.15;;;;;;;14.32;77.41;102435.53;5077229;28;20052;-71
2021/06/09 02:18:14;;;;;;;25.13;14.95;;;;;;;14.28;76.88;102439.22;5071298;28;20132;-72
2021/06/09 02:20:44;;;;;;;33.05;18.17;;;;;;;14.25;77.75;102437.50;5081447;28;20142;-71
2021/06/09 02:23:12;;;;;;;27.10;16.10;;;;;;;14.23;78.38;102436.63;5073083;28;20064;-71
2021/06/09 02:25:42;;;;;;;29.15;16.55;;;;;;;14.19;77.67;102435.81;5079387;28;20457;-71
2021/06/09 02:28:11;;;;;;;28.95;16.98;;;;;;;14.21;77.67;102435.78;5073040;28;20091;-72
2021/06/09 02:30:41;;;;;;;26.65;16.05;;;;;;;14.22;77.89;102433.97;5078785;28;20055;-72
2021/06/09 02:33:10;;;;;;;29.40;16.63;;;;;;;14.17;77.21;102429.59;5071335;28;21112;-73
2021/06/09 02:35:39;;;;;;;30.65;17.73;;;;;;;14.16;77.78;102424.25;5079481;28;20051;-71
2021/06/09 02:38:07;;;;;;;33.85;19.83;;;;;;;14.13;79.83;102432.38;5071518;28;20067;-74
2021/06/09 02:40:37;;;;;;;35.08;21.13;;;;;;;14.12;79.09;102436.88;5078772;28;20075;-74
2021/06/09 02:43:04;;;;;;;35.45;21.52;;;;;;;14.08;80.24;102437.84;5073765;28;20109;-74
2021/06/09 02:45:32;;;;;;;34.85;20.20;;;;;;;14.10;79.69;102436.03;5078492;28;20063;-74
2021/06/09 02:48:04;;;;;;;34.80;18.63;;;;;;;14.12;80.12;102434.19;5077228;28;20067;-75
2021/06/09 02:50:32;;;;;;;36.45;20.25;;;;;;;14.09;79.37;102426.19;5076981;28;20052;-74
2021/06/09 02:53:06;;;;;;;31.40;17.60;;;;;;;14.07;78.97;102436.06;5078757;28;20067;-74
2021/06/09 02:55:48;;;;;;;35.10;19.50;;;;;;;14.04;79.22;102440.63;5074839;28;20063;-74
2021/06/09 02:58:29;;;;;;;35.72;20.52;;;;;;;14.09;79.98;102428.88;5078164;28;20071;-75
2021/06/09 03:01:04;;;;;;;35.63;19.77;;;;;;;14.06;79.49;102431.63;5074817;28;20294;-74
2021/06/09 03:03:43;;;;;;;33.35;19.92;;;;;;;14.06;79.36;102428.94;5076884;28;20064;-75
2021/06/09 03:06:20;;;;;;;32.83;18.48;;;;;;;14.02;80.17;102429.94;5076918;28;20071;-75
2021/06/09 03:08:57;;;;;;;35.08;19.30;;;;;;;14.00;80.04;102431.75;5076959;28;20785;-75
2021/06/09 03:11:31;;;;;;;39.88;21.30;;;;;;;14.02;80.95;102428.13;5074278;28;20067;-75
2021/06/09 03:14:03;;;;;;;38.08;21.08;;;;;;;14.01;80.45;102430.81;5078286;28;20178;-75
2021/06/09 03:16:36;;;;;;;34.58;21.27;;;;;;;14.02;81.13;102422.75;5076828;28;20174;-75
2021/06/09 03:19:08;;;;;;;39.72;21.30;;;;;;;14.00;80.33;102424.59;5080528;28;20387;-75
2021/06/09 03:21:42;;;;;;;39.28;22.25;;;;;;;14.01;80.39;102422.78;5073499;28;20436;-75
2021/06/09 03:24:15;;;;;;;37.75;20.25;;;;;;;13.97;80.14;102421.97;5083037;28;20089;-74
2021/06/09 03:26:50;;;;;;;35.88;18.65;;;;;;;13.98;79.98;102428.25;5080681;28;20052;-74
2021/06/09 03:29:37;;;;;;;35.10;19.35;;;;;;;14.00;80.58;102423.72;5084756;28;20141;-74
2021/06/09 03:32:08;;;;;;;36.85;19.88;;;;;;;14.02;81.20;102421.88;5075621;28;20118;-75
2021/06/09 03:34:43;;;;;;;36.72;19.52;;;;;;;13.99;80.44;102416.56;5081722;28;20060;-75
2021/06/09 03:37:14;;;;;;;36.97;21.27;;;;;;;13.98;80.81;102420.19;5093134;27;20047;-76
2021/06/09 03:39:45;;;;;;;33.08;17.88;;;;;;;13.98;80.82;102415.69;5080685;28;20146;-75
2021/06/09 03:42:18;;;;;;;34.95;19.83;;;;;;;13.99;80.61;102419.25;5078194;28;20067;-75
2021/06/09 03:44:50;;;;;;;36.45;19.83;;;;;;;13.97;81.56;102415.72;5079751;28;20131;-76
2021/06/09 03:47:19;;;;;;;37.80;21.65;;;;;;;13.93;82.19;102422.97;5076285;28;20476;-75
2021/06/09 03:49:49;;;;;;;42.53;23.42;;;;;;;13.95;82.47;102421.13;5079241;28;20068;-76
2021/06/09 03:52:18;;;;;;;46.50;25.65;;;;;;;14.06;83.04;102411.94;5077541;28;20071;-75
2021/06/09 03:54:48;;;;;;;47.60;27.98;;;;;;;14.12;83.16;102414.53;5080716;28;20457;-76
2021/06/09 03:57:17;;;;;;;52.92;29.90;;;;;;;14.17;83.25;102415.31;5078244;28;20052;-75
2021/06/09 03:59:46;;;;;;;55.95;28.67;;;;;;;14.23;82.93;102420.50;5079528;28;20155;-74
2021/06/09 04:02:14;;;;;;;49.53;27.98;;;;;;;14.29;83.30;102424.88;5075279;28;20469;-75
2021/06/09 04:04:43;;;;;;;55.65;29.73;;;;;;;14.34;82.72;102425.66;5081490;28;20836;-74
2021/06/09 04:07:14;;;;;;;49.80;27.42;;;;;;;14.36;82.78;102422.00;5081196;28;20071;-75
2021/06/09 04:09:43;;;;;;;46.38;25.30;;;;;;;14.42;82.74;102421.00;5078657;28;20064;-75
2021/06/09 04:12:13;;;;;;;50.17;27.58;;;;;;;14.45;82.83;102423.59;5077942;28;20052;-75
2021/06/09 04:14:43;;;;;;;56.38;28.40;;;;;;;14.49;83.37;102427.09;5077689;28;20136;-75
2021/06/09 04:17:12;;;;;;;47.30;27.75;;;;;;;14.53;83.10;102420.75;5081802;28;20124;-76
2021/06/09 04:19:46;;;;;;;48.05;26.73;;;;;;;14.60;82.55;102418.84;5078573;28;20178;-75
2021/06/09 04:22:15;;;;;;;53.92;27.50;;;;;;;14.60;83.14;102414.34;5078289;28;20230;-75
2021/06/09 04:24:43;;;;;;;55.47;29.02;;;;;;;14.61;83.00;102417.88;5077134;28;20484;-75
2021/06/09 04:27:14;;;;;;;56.38;28.83;;;;;;;14.66;83.07;102418.66;5078806;28;20458;-74
2021/06/09 04:29:43;;;;;;;61.55;31.95;;;;;;;14.69;82.99;102424.88;5076078;28;20068;-75
2021/06/09 04:32:10;;;;;;;61.53;32.58;;;;;;;14.73;83.04;102418.50;5082352;28;20059;-75
2021/06/09 04:34:45;;;;;;;55.20;30.70;;;;;;;14.85;82.42;102421.81;5072080;28;20071;-75
2021/06/09 04:37:16;;;;;;;57.88;30.40;;;;;;;14.91;81.90;102419.84;5083433;28;20072;-74
2021/06/09 04:39:44;;;;;;;59.25;30.75;;;;;;;15.04;82.26;102416.84;5074481;28;20060;-72
2021/06/09 04:42:12;;;;;;;59.67;32.13;;;;;;;15.11;81.94;102415.75;5080728;28;20066;-71
2021/06/09 04:44:42;;;;;;;58.28;30.75;;;;;;;15.14;81.72;102421.06;5072479;28;20368;-72
2021/06/09 04:47:11;;;;;;;61.17;32.95;;;;;;;15.20;81.51;102420.88;5081243;28;20064;-72
2021/06/09 04:49:41;;;;;;;58.20;32.08;;;;;;;15.29;80.90;102417.97;5074853;28;20060;-72
2021/06/09 04:52:10;;;;;;;59.08;31.98;;;;;;;15.35;80.83;102416.91;5080053;28;20075;-71
2021/06/09 04:54:39;;;;;;;55.80;31.58;;;;;;;15.43;80.45;102416.72;5078013;28;20105;-72
2021/06/09 04:57:08;;;;;;;62.13;32.83;;;;;;;15.47;80.37;102413.88;5081922;28;20056;-72
2021/06/09 04:59:35;;;;;;;72.38;35.13;;;;;;;15.53;80.34;102402.09;5074809;28;20110;-71
2021/06/09 05:02:03;;;;;;;64.28;31.75;;;;;;;15.67;79.86;102412.44;5080050;28;20516;-72
2021/06/09 05:04:31;;;;;;;61.92;32.42;;;;;;;15.77;79.19;102411.28;5076699;28;20060;-72
2021/06/09 05:06:58;;;;;;;69.10;35.80;;;;;;;15.81;79.34;102412.06;5082208;28;20060;-73
2021/06/09 05:09:26;;;;;;;66.53;34.80;;;;;;;15.86;78.99;102418.22;5081504;28;20060;-73
2021/06/09 05:12:01;;;;;;;63.78;33.40;;;;;;;15.95;79.21;102408.97;5074532;28;20056;-72
2021/06/09 05:14:32;;;;;;;73.35;37.05;;;;;;;15.96;79.33;102408.94;5075806;28;20053;-72
2021/06/09 05:17:02;;;;;;;70.15;37.95;;;;;;;15.92;79.05;102404.59;5075462;28;20056;-72
2021/06/09 05:19:32;;;;;;;73.00;36.03;;;;;;;15.96;79.06;102400.84;5077356;28;20113;-71
2021/06/09 05:22:04;;;;;;;73.80;38.38;;;;;;;15.98;79.06;102401.69;5075121;28;20874;-72
2021/06/09 05:24:35;;;;;;;70.55;36.25;;;;;;;16.11;78.42;102406.72;5075625;28;20121;-71
2021/06/09 05:27:05;;;;;;;72.32;35.65;;;;;;;16.21;78.62;102408.19;5074016;28;20059;-72
2021/06/09 05:29:33;;;;;;;82.57;38.90;;;;;;;16.28;77.94;102417.84;5078391;28;20417;-75
2021/06/09 05:32:03;;;;;;;69.22;34.53;;;;;;;16.37;78.05;102409.47;5074591;28;20056;-75
2021/06/09 05:34:34;;;;;;;78.20;40.10;;;;;;;16.39;77.78;102404.91;5080666;28;20490;-76
2021/06/09 05:37:02;;;;;;;89.72;43.78;;;;;;;16.42;77.21;102404.81;5070774;28;20052;-75
2021/06/09 05:39:31;;;;;;;84.18;39.78;;;;;;;16.64;76.97;102405.94;5080726;28;20110;-75
2021/06/09 05:42:00;;;;;;;84.03;42.30;;;;;;;16.84;75.87;102405.28;5073744;28;20055;-76
2021/06/09 05:44:29;;;;;;;78.88;40.80;;;;;;;17.06;75.50;102398.28;5078347;28;20055;-75
2021/06/09 05:47:00;;;;;;;81.65;42.35;;;;;;;17.22;73.49;102403.13;5071017;28;20048;-75
2021/06/09 05:49:28;;;;;;;84.57;40.17;;;;;;;17.44;71.87;102404.09;5080263;28;20070;-76
2021/06/09 05:51:56;;;;;;;74.85;39.67;;;;;;;17.31;71.82;102400.97;5070634;28;20056;-76
2021/06/09 05:54:34;;;;;;;79.22;41.22;;;;;;;17.61;70.49;102394.53;5079458;28;20056;-75
2021/06/09 05:57:11;;;;;;;69.57;36.28;;;;;;;17.83;69.34;102400.88;5076814;28;20169;-75
2021/06/09 05:59:43;;;;;;;67.25;37.15;;;;;;;17.97;67.47;102405.78;5079997;28;20044;-75
2021/06/09 06:02:12;;;;;;;67.10;36.05;;;;;;;17.97;67.03;102407.59;5073386;28;20165;-76
2021/06/09 06:04:41;;;;;;;61.63;34.28;;;;;;;18.42;67.55;102401.31;5077827;28;20117;-76
2021/06/09 06:07:11;;;;;;;61.28;31.30;;;;;;;18.61;64.15;102404.13;5078442;28;20055;-77
2021/06/09 06:09:40;;;;;;;55.50;32.10;;;;;;;19.06;62.30;102403.19;5078285;28;20056;-75
2021/06/09 06:12:09;;;;;;;61.97;32.72;;;;;;;18.88;62.22;102398.56;5075835;28;20055;-77
2021/06/09 06:14:38;;;;;;;56.72;30.05;;;;;;;19.21;60.40;102397.09;5078454;28;20059;-75
2021/06/09 06:17:08;;;;;;;55.00;31.85;;;;;;;19.49;60.80;102395.88;5071907;28;20067;-75
2021/06/09 06:19:37;;;;;;;54.13;30.05;;;;;;;19.90;60.22;102393.16;5077303;28;20064;-76
2021/06/09 06:22:09;;;;;;;54.83;29.77;;;;;;;20.30;60.07;102391.22;5073132;28;20419;-73
2021/06/09 06:24:41;;;;;;;56.08;31.13;;;;;;;20.11;59.96;102395.78;5079405;28;20142;-73
2021/06/09 06:27:12;;;;;;;51.42;29.35;;;;;;;20.25;58.61;102395.13;5075330;28;20059;-73
2021/06/09 06:29:40;;;;;;;51.42;29.60;;;;;;;20.74;58.64;102394.53;5075434;28;20064;-73
2021/06/09 06:32:12;;;;;;;59.60;31.58;;;;;;;20.36;60.21;102398.16;5076669;28;20060;-73
2021/06/09 06:34:48;;;;;;;55.63;32.33;;;;;;;20.70;58.46;102391.09;5076631;28;20064;-76
2021/06/09 06:37:20;;;;;;;56.85;31.50;;;;;;;21.10;58.49;102399.94;5078464;28;20063;-72
2021/06/09 06:39:52;;;;;;;57.28;31.73;;;;;;;21.13;57.09;102399.78;5077530;28;20056;-72
2021/06/09 06:42:20;;;;;;;55.28;30.38;;;;;;;21.43;57.70;102397.25;5076813;28;20066;-72
2021/06/09 06:44:47;;;;;;;52.35;29.45;;;;;;;21.70;56.41;102393.19;5076176;28;20082;-73
2021/06/09 06:47:18;;;;;;;54.63;31.05;;;;;;;22.00;55.58;102393.34;5077317;28;20082;-72
2021/06/09 06:49:50;;;;;;;52.45;29.02;;;;;;;22.42;54.46;102399.16;5076489;28;20061;-73
2021/06/09 06:52:18;;;;;;;52.92;30.92;;;;;;;22.75;53.53;102401.75;5079010;28;20059;-72
2021/06/09 06:54:45;;;;;;;57.78;33.78;;;;;;;22.57;53.70;102401.84;5078370;28;20060;-72
2021/06/09 06:57:13;;;;;;;59.80;35.42;;;;;;;22.89;52.81;102399.09;5077737;28;20055;-72
2021/06/09 06:59:41;;;;;;;55.70;33.60;;;;;;;23.06;53.29;102405.41;5078060;28;20454;-73
2021/06/09 07:02:10;;;;;;;58.97;33.58;;;;;;;23.11;52.38;102397.84;5075957;28;20995;-71
2021/06/09 07:04:39;;;;;;;55.35;31.52;;;;;;;22.51;52.79;102402.22;5093479;27;20067;-72
2021/06/09 07:07:06;;;;;;;49.08;27.88;;;;;;;22.70;50.64;102406.59;5074755;28;20060;-72
2021/06/09 07:09:34;;;;;;;47.70;29.05;;;;;;;22.47;49.87;102399.75;5076979;28;20174;-72
2021/06/09 07:12:04;;;;;;;40.65;25.08;;;;;;;23.40;50.09;102400.63;5077290;28;20167;-73
2021/06/09 07:14:32;;;;;;;45.47;26.77;;;;;;;23.56;49.12;102397.81;5076550;28;20087;-71
2021/06/09 07:17:00;;;;;;;36.40;22.20;;;;;;;23.94;47.69;102400.88;5077652;28;20064;-72
2021/06/09 07:19:27;;;;;;;39.70;22.95;;;;;;;23.72;47.89;102400.44;5073984;28;20060;-71
2021/06/09 07:22:15;;;;;;;33.38;23.20;;;;;;;24.20;48.39;102403.75;5075800;28;20797;-71
2021/06/09 07:24:42;;;;;;;33.97;20.88;;;;;;;23.97;48.52;102402.50;5075102;28;20051;-73
2021/06/09 07:27:10;;;;;;;39.78;25.58;;;;;;;24.65;47.15;102406.28;5078715;28;20343;-71
2021/06/09 07:29:39;;;;;;;42.53;23.40;;;;;;;24.20;45.45;102411.94;5077436;28;20147;-70
2021/06/09 07:32:08;;;;;;;39.03;24.10;;;;;;;24.09;46.80;102407.16;5079232;28;20064;-71
2021/06/09 07:34:36;;;;;;;44.97;26.30;;;;;;;23.83;47.89;102393.34;5082233;28;20060;-74
2021/06/09 07:37:08;;;;;;;42.05;25.83;;;;;;;24.49;45.53;102399.09;5073809;28;20389;-74
2021/06/09 07:39:41;;;;;;;38.60;22.67;;;;;;;25.34;45.43;102399.72;5096101;27;20064;-73
2021/06/09 07:42:11;;;;;;;38.03;22.23;;;;;;;24.95;44.18;102397.88;5077051;28;20117;-74
2021/06/09 07:44:44;;;;;;;37.03;19.80;;;;;;;25.39;43.65;102398.50;5080016;28;20174;-73
2021/06/09 07:47:14;;;;;;;31.95;20.55;;;;;;;25.23;42.19;102398.69;5073280;28;20059;-73
2021/06/09 07:49:45;;;;;;;33.08;20.67;;;;;;;24.95;42.80;102403.31;5080146;28;20064;-75
2021/06/09 07:52:13;;;;;;;43.03;22.75;;;;;;;24.73;42.66;102403.91;5072220;28;20059;-74
2021/06/09 07:54:44;;;;;;;33.00;19.80;;;;;;;25.05;41.87;102404.44;5078190;28;20447;-74
2021/06/09 07:57:12;;;;;;;33.42;18.50;;;;;;;25.68;40.54;102401.91;5077679;28;20067;-74
2021/06/09 07:59:41;;;;;;;40.60;23.70;;;;;;;25.22;41.08;102413.34;5077197;28;20066;-75
2021/06/09 08:02:09;;;;;;;34.80;20.85;;;;;;;25.74;39.47;102404.19;5075825;28;20052;-73
2021/06/09 08:04:36;;;;;;;39.25;23.85;;;;;;;25.48;40.35;102409.66;5073409;28;20071;-74
2021/06/09 08:07:04;;;;;;;39.92;25.20;;;;;;;25.04;40.66;102412.72;5075427;28;20271;-76
2021/06/09 08:09:31;;;;;;;36.83;22.92;;;;;;;25.54;41.13;102406.50;5078851;28;20059;-75
2021/06/09 08:12:03;;;;;;;35.53;19.50;;;;;;;25.79;39.98;102414.78;5080517;28;20151;-76
2021/06/09 08:14:31;;;;;;;39.38;24.02;;;;;;;25.59;39.91;102418.94;5077481;28;20064;-74
2021/06/09 08:16:59;;;;;;;39.65;25.15;;;;;;;25.59;40.11;102411.66;5077748;28;20063;-71
2021/06/09 08:19:26;;;;;;;40.83;25.08;;;;;;;26.37;39.66;102409.66;5081113;28;20856;-72
2021/06/09 08:21:54;;;;;;;35.03;20.92;;;;;;;26.76;38.20;102413.16;5083802;28;20052;-71
2021/06/09 08:24:22;;;;;;;35.97;21.73;;;;;;;26.18;36.86;102416.50;5076951;28;20060;-71
2021/06/09 08:26:50;;;;;;;30.70;20.48;;;;;;;26.31;37.34;102416.47;5082288;28;20051;-71
2021/06/09 08:29:18;;;;;;;33.28;20.20;;;;;;;26.91;37.12;102417.44;5071896;28;20067;-72
2021/06/09 08:31:46;;;;;;;35.08;20.83;;;;;;;27.01;36.98;102414.88;5083790;28;20056;-70
2021/06/09 08:34:13;;;;;;;30.75;19.20;;;;;;;26.36;37.27;102414.28;5076658;28;20059;-71
2021/06/09 08:36:44;;;;;;;26.92;16.45;;;;;;;26.36;37.54;102414.28;5078968;28;20068;-70
2021/06/09 08:39:12;;;;;;;25.20;15.30;;;;;;;27.00;35.93;102418.59;5073130;28;20056;-74
2021/06/09 08:41:40;;;;;;;28.08;17.30;;;;;;;26.95;35.67;102426.28;5080452;28;20136;-73
2021/06/09 08:44:08;;;;;;;26.83;17.75;;;;;;;26.94;35.28;102424.56;5077721;28;20054;-75
2021/06/09 08:46:37;;;;;;;28.15;17.95;;;;;;;26.30;36.01;102416.59;5078958;28;20055;-74
2021/06/09 08:49:05;;;;;;;26.00;15.40;;;;;;;27.37;35.04;102421.25;5072938;28;20109;-72
2021/06/09 08:51:34;;;;;;;25.08;17.20;;;;;;;25.87;36.31;102428.78;5077943;28;20166;-71
2021/06/09 08:54:04;;;;;;;22.45;15.40;;;;;;;25.98;36.65;102423.41;5074124;28;20067;-75
2021/06/09 08:56:32;;;;;;;21.25;13.70;;;;;;;27.30;34.35;102415.38;5078912;28;20052;-73
2021/06/09 08:59:00;;;;;;;15.63;7.72;;;;;;;26.96;33.31;102422.56;5077011;28;20067;-74
2021/06/09 09:01:29;;;;;;;19.17;12.75;;;;;;;26.97;32.16;102418.81;5076322;28;20067;-74
2021/06/09 09:04:03;;;;;;;14.65;8.13;;;;;;;26.40;33.36;102417.66;5078385;28;20052;-74
2021/06/09 09:06:31;;;;;;;12.10;7.18;;;;;;;27.25;33.09;102422.19;5076593;28;20059;-73
2021/06/09 09:08:59;;;;;;;15.73;8.80;;;;;;;26.54;33.23;102420.22;5076155;28;20099;-74
2021/06/09 09:11:27;;;;;;;15.30;7.18;;;;;;;27.11;33.87;102423.25;5076600;28;20071;-72
2021/06/09 09:13:54;;;;;;;13.90;7.25;;;;;;;27.21;33.93;102430.63;5080574;28;20442;-72
2021/06/09 09:16:22;;;;;;;15.10;8.85;;;;;;;27.18;33.93;102430.88;5074168;28;20056;-72
2021/06/09 09:18:57;;;;;;;13.15;8.35;;;;;;;27.52;33.45;102425.50;5076017;28;20066;-73
2021/06/09 09:21:37;;;;;;;14.50;7.88;;;;;;;28.06;33.05;102417.56;5068606;28;20058;-71
2021/06/09 09:24:09;;;;;;;14.93;8.13;;;;;;;27.34;33.30;102427.81;5079233;28;20067;-73
2021/06/09 09:26:38;;;;;;;15.07;8.98;;;;;;;27.43;33.07;102420.75;5090772;28;20490;-72
2021/06/09 09:29:16;;;;;;;18.38;10.25;;;;;;;28.01;32.91;102415.22;5080561;28;20047;-74
2021/06/09 09:31:49;;;;;;;17.45;10.38;;;;;;;27.54;33.92;102423.50;5073333;28;20064;-74
2021/06/09 09:34:43;;;;;;;15.57;9.18;;;;;;;28.05;34.04;102424.94;5077750;28;20071;-73
2021/06/09 09:37:14;;;;;;;17.48;10.88;;;;;;;28.18;32.70;102426.66;5065059;28;20054;-73
2021/06/09 09:39:44;;;;;;;16.80;10.23;;;;;;;28.30;33.75;102421.03;5076110;28;20060;-72
2021/06/09 09:42:25;;;;;;;17.65;10.77;;;;;;;28.06;33.54;102420.31;5072595;28;20060;-73
2021/06/09 09:44:53;;;;;;;17.75;10.65;;;;;;;27.27;33.92;102425.66;5078124;28;20330;-73
2021/06/09 09:47:23;;;;;;;16.88;11.82;;;;;;;27.71;33.96;102424.91;5074725;28;20082;-73
2021/06/09 09:49:51;;;;;;;13.68;10.15;;;;;;;28.37;33.62;102432.38;5074517;28;20511;-73
2021/06/09 09:52:21;;;;;;;13.95;10.02;;;;;;;28.05;33.81;102418.59;5074996;28;20113;-73
2021/06/09 09:55:06;;;;;;;12.73;8.35;;;;;;;27.33;34.50;102428.84;5078515;28;20142;-73
2021/06/09 09:57:35;;;;;;;12.05;7.75;;;;;;;27.46;35.31;102428.72;5077318;28;20536;-72
2021/06/09 10:00:06;;;;;;;13.38;8.60;;;;;;;26.41;36.39;102422.16;5092990;27;20091;-72
2021/06/09 10:02:34;;;;;;;10.55;7.07;;;;;;;27.68;35.38;102429.75;5074143;28;20056;-72
2021/06/09 10:05:10;;;;;;;14.75;8.73;;;;;;;26.79;36.23;102432.09;5076476;28;20113;-74
2021/06/09 10:07:39;;;;;;;14.48;7.82;;;;;;;27.34;36.45;102427.81;5071802;28;20056;-72
2021/06/09 10:10:08;;;;;;;10.43;6.78;;;;;;;27.30;35.62;102434.53;5077386;28;20071;-72
2021/06/09 10:12:35;;;;;;;12.32;8.20;;;;;;;27.31;36.67;102422.59;5073877;28;20132;-73
2021/06/09 10:15:03;;;;;;;18.25;10.60;;;;;;;27.02;36.41;102430.31;5075039;28;20052;-72
2021/06/09 10:17:33;;;;;;;19.02;11.73;;;;;;;25.89;38.70;102427.66;5073283;28;20067;-73
2021/06/09 10:20:03;;;;;;;16.48;11.07;;;;;;;27.20;37.08;102428.88;5074881;28;20078;-73
2021/06/09 10:22:33;;;;;;;15.35;9.48;;;;;;;27.70;35.95;102428.66;5068850;28;20070;-73
2021/06/09 10:25:05;;;;;;;15.32;9.20;;;;;;;26.52;37.43;102424.06;5089648;28;20056;-73
2021/06/09 10:27:35;;;;;;;13.23;9.00;;;;;;;27.31;36.77;102427.19;5073160;28;20048;-73
2021/06/09 10:30:20;;;;;;;14.57;9.60;;;;;;;28.16;36.00;102415.81;5072968;28;20060;-73
2021/06/09 10:32:50;;;;;;;14.88;9.57;;;;;;;27.65;36.66;102428.16;5074733;28;20075;-72
2021/06/09 10:35:21;;;;;;;16.08;9.23;;;;;;;27.98;36.33;102420.97;5073435;28;20090;-75
2021/06/09 10:37:49;;;;;;;16.50;10.30;;;;;;;27.42;37.14;102424.50;5073469;28;20056;-74
2021/06/09 10:40:21;;;;;;;18.88;11.32;;;;;;;27.67;37.03;102422.50;5074460;28;20068;-77
2021/06/09 10:42:49;;;;;;;19.02;11.50;;;;;;;26.64;38.21;102428.63;5074981;28;20107;-74
2021/06/09 10:45:21;;;;;;;14.75;9.00;;;;;;;27.71;37.72;102415.81;5088127;28;20110;-75
2021/06/09 10:47:55;;;;;;;13.60;8.75;;;;;;;27.53;38.00;102416.28;5076522;28;20181;-74
2021/06/09 10:50:23;;;;;;;17.13;10.32;;;;;;;27.71;37.98;102424.91;5076199;28;20067;-74
2021/06/09 10:52:50;;;;;;;21.23;14.00;;;;;;;28.07;36.65;102420.19;5077081;28;20216;-74
2021/06/09 10:55:20;;;;;;;19.05;12.70;;;;;;;28.72;35.14;102416.72;5073737;28;20071;-73
2021/06/09 10:57:49;;;;;;;19.27;13.02;;;;;;;28.28;35.92;102428.53;5079070;28;20063;-73
2021/06/09 11:00:19;;;;;;;20.48;14.02;;;;;;;27.94;35.90;102413.97;5075230;28;20428;-74
2021/06/09 11:02:48;;;;;;;19.80;12.07;;;;;;;28.42;35.24;102418.28;5074910;28;20201;-75
2021/06/09 11:05:17;;;;;;;17.95;12.68;;;;;;;28.06;35.55;102414.81;5074740;28;20053;-76
2021/06/09 11:07:46;;;;;;;18.05;11.15;;;;;;;28.33;36.37;102414.41;5073657;28;20064;-76
2021/06/09 11:10:15;;;;;;;19.52;12.82;;;;;;;27.36;38.13;102428.59;5073790;28;20120;-73
2021/06/09 11:12:46;;;;;;;17.48;11.48;;;;;;;28.31;36.74;102416.41;5075931;28;20466;-74
2021/06/09 11:15:16;;;;;;;22.00;14.30;;;;;;;27.07;39.05;102425.34;5073295;28;20060;-74
2021/06/09 11:17:47;;;;;;;21.00;13.57;;;;;;;28.04;36.58;102411.34;5075058;28;20060;-74
2021/06/09 11:20:20;;;;;;;20.23;12.05;;;;;;;28.50;35.99;102418.50;5076972;28;20113;-74
2021/06/09 11:23:05;;;;;;;21.05;14.77;;;;;;;27.91;36.36;102416.94;5074582;28;20056;-74